createdAt,value
2022-10-03T00:02:42.746Z,13.90
2022-10-03T00:05:38.432Z,15.30
2022-10-03T00:08:31.705Z,14.32
2022-10-03T00:11:31.734Z,14.45
2022-10-03T00:14:13.802Z,15.00
2022-10-03T00:17:01.457Z,15.73
2022-10-03T00:19:41.002Z,13.00
2022-10-03T00:23:15.822Z,13.95
2022-10-03T00:25:54.768Z,13.27
2022-10-03T00:28:40.508Z,14.18
2022-10-03T00:31:35.210Z,12.85
2022-10-03T00:34:22.419Z,14.23
2022-10-03T00:37:25.662Z,11.93
2022-10-03T00:40:55.434Z,12.93
2022-10-03T00:43:44.301Z,12.13
2022-10-03T00:46:56.654Z,12.25
2022-10-03T00:49:36.355Z,11.75
2022-10-03T00:52:24.503Z,10.80
2022-10-03T00:55:51.257Z,11.32
2022-10-03T00:59:03.330Z,10.10
2022-10-03T01:01:37.966Z,9.95
2022-10-03T01:04:32.485Z,10.15
2022-10-03T01:07:32.901Z,9.85
2022-10-03T01:10:54.835Z,10.35
2022-10-03T01:13:56.907Z,10.27
2022-10-03T01:16:40.399Z,9.65
2022-10-03T01:19:43.148Z,9.73
2022-10-03T01:22:22.432Z,8.73
2022-10-03T01:24:52.508Z,8.20
2022-10-03T01:27:58.308Z,8.95
2022-10-03T01:30:31.882Z,8.70
2022-10-03T01:33:25.873Z,9.30
2022-10-03T01:35:57.394Z,8.63
2022-10-03T01:38:47.997Z,8.18
2022-10-03T01:41:50.801Z,8.48
2022-10-03T01:44:52.939Z,7.28
2022-10-03T01:47:29.243Z,7.55
2022-10-03T01:50:38.999Z,8.40
2022-10-03T01:53:36.947Z,7.10
2022-10-03T01:56:48.391Z,7.43
2022-10-03T01:59:48.717Z,6.55
2022-10-03T02:02:50.657Z,7.18
2022-10-03T02:05:58.518Z,6.72
2022-10-03T02:08:54.278Z,6.03
2022-10-03T02:14:32.232Z,5.80
2022-10-03T02:17:23.333Z,5.65
2022-10-03T02:20:06.420Z,5.43
2022-10-03T02:22:56.555Z,4.75
2022-10-03T02:26:08.334Z,5.90
2022-10-03T02:29:24.646Z,5.03
2022-10-03T02:32:41.659Z,5.45
2022-10-03T02:35:12.131Z,5.05
2022-10-03T02:38:06.204Z,5.32
2022-10-03T02:40:57.108Z,5.60
2022-10-03T02:43:49.001Z,4.32
2022-10-03T02:46:35.230Z,4.78
2022-10-03T02:49:43.059Z,4.97
2022-10-03T02:52:58.067Z,5.05
2022-10-03T02:55:56.033Z,4.20
2022-10-03T02:59:01.316Z,4.60
2022-10-03T03:02:02.458Z,4.27
2022-10-03T03:05:07.256Z,4.22
2022-10-03T03:08:02.246Z,4.40
2022-10-03T03:10:57.639Z,3.90
2022-10-03T03:13:59.366Z,3.80
2022-10-03T03:16:42.800Z,3.38
2022-10-03T03:19:40.431Z,4.15
2022-10-03T03:22:25.562Z,3.33
2022-10-03T03:25:09.108Z,4.40
2022-10-03T03:28:23.886Z,3.97
2022-10-03T03:31:16.657Z,3.72
2022-10-03T03:34:13.779Z,4.22
2022-10-03T03:37:28.544Z,2.78
2022-10-03T03:40:29.919Z,3.75
2022-10-03T03:43:42.474Z,4.13
2022-10-03T03:46:44.176Z,2.83
2022-10-03T03:50:02.089Z,2.90
2022-10-03T03:52:47.168Z,3.05
2022-10-03T03:55:31.597Z,3.67
2022-10-03T03:58:32.364Z,2.58
2022-10-03T04:01:43.932Z,3.42
2022-10-03T04:04:47.896Z,3.10
2022-10-03T04:08:12.363Z,2.95
2022-10-03T04:11:14.005Z,2.85
2022-10-03T04:14:02.657Z,2.50
2022-10-03T04:17:31.362Z,2.58
2022-10-03T04:20:16.448Z,2.92
2022-10-03T04:23:01.373Z,2.83
2022-10-03T04:25:43.719Z,2.35
2022-10-03T04:28:35.491Z,2.72
2022-10-03T04:31:20.943Z,2.70
2022-10-03T04:37:02.029Z,2.00
2022-10-03T04:40:19.657Z,2.33
2022-10-03T04:43:29.832Z,2.22
2022-10-03T04:46:31.044Z,2.40
2022-10-03T04:49:05.165Z,2.60
2022-10-03T04:52:02.470Z,2.47
2022-10-03T04:54:48.641Z,2.10
2022-10-03T04:57:54.876Z,2.33
2022-10-03T05:03:22.663Z,1.75
2022-10-03T05:06:06.527Z,1.98
2022-10-03T05:08:44.406Z,2.40
2022-10-03T05:11:55.843Z,2.40
2022-10-03T05:14:50.164Z,2.20
2022-10-03T05:17:46.281Z,2.40
2022-10-03T05:20:55.615Z,2.45
2022-10-03T05:24:03.113Z,1.98
2022-10-03T05:27:01.913Z,2.10
2022-10-03T05:30:04.921Z,2.05
2022-10-03T05:33:17.105Z,2.03
2022-10-03T05:36:02.561Z,1.85
2022-10-03T05:39:19.060Z,2.05
2022-10-03T05:45:32.975Z,1.63
2022-10-03T05:48:44.888Z,1.80
2022-10-03T05:51:39.562Z,1.50
2022-10-03T05:54:50.409Z,1.47
2022-10-03T05:58:08.028Z,1.50
2022-10-03T06:01:28.150Z,2.00
2022-10-03T06:04:16.506Z,2.30
2022-10-03T06:07:20.386Z,2.05
2022-10-03T06:10:25.906Z,1.85
2022-10-03T06:13:33.115Z,2.08
2022-10-03T06:16:19.563Z,1.63
2022-10-03T06:19:08.562Z,1.95
2022-10-03T06:22:17.187Z,1.38
2022-10-03T06:25:16.698Z,1.20
2022-10-03T06:28:51.042Z,1.67
2022-10-03T06:31:21.302Z,1.38
2022-10-03T06:34:00.724Z,1.80
2022-10-03T06:37:03.455Z,1.17
2022-10-03T06:40:25.446Z,2.22
2022-10-03T06:43:37.423Z,1.70
2022-10-03T06:46:16.291Z,1.70
2022-10-03T06:49:22.029Z,1.70
2022-10-03T06:52:09.365Z,1.88
2022-10-03T06:55:20.617Z,1.52
2022-10-03T06:58:27.659Z,1.48
2022-10-03T07:02:10.395Z,1.73
2022-10-03T07:05:17.327Z,2.00
2022-10-03T07:08:13.885Z,2.15
2022-10-03T07:11:28.866Z,1.88
2022-10-03T07:14:08.544Z,1.73
2022-10-03T07:17:16.271Z,1.63
2022-10-03T07:19:55.574Z,2.05
2022-10-03T07:23:31.102Z,1.63
2022-10-03T07:26:39.485Z,1.77
2022-10-03T07:29:51.168Z,2.10
2022-10-03T07:33:16.823Z,1.98
2022-10-03T07:37:06.326Z,2.33
2022-10-03T07:40:30.229Z,1.92
2022-10-03T07:43:21.789Z,2.45
2022-10-03T07:46:35.591Z,2.15
2022-10-03T07:49:47.766Z,2.55
2022-10-03T07:52:58.354Z,2.60
2022-10-03T07:55:38.640Z,2.20
2022-10-03T07:58:35.512Z,2.67
2022-10-03T08:01:43.104Z,3.15
2022-10-03T08:04:54.826Z,2.22
2022-10-03T08:07:49.257Z,3.03
2022-10-03T08:10:52.781Z,2.65
2022-10-03T08:14:07.682Z,2.72
2022-10-03T08:17:14.512Z,2.03
2022-10-03T08:20:27.337Z,2.60
2022-10-03T08:22:54.743Z,3.08
2022-10-03T08:25:36.808Z,2.35
2022-10-03T08:28:52.139Z,3.13
2022-10-03T08:31:52.851Z,2.97
2022-10-03T08:35:11.386Z,3.00
2022-10-03T08:38:12.534Z,2.97
2022-10-03T08:41:26.363Z,3.15
2022-10-03T08:44:33.601Z,2.78
2022-10-03T08:47:13.590Z,2.83
2022-10-03T08:50:33.359Z,3.35
2022-10-03T08:53:25.134Z,3.28
2022-10-03T08:56:13.557Z,3.05
2022-10-03T08:59:22.228Z,3.25
2022-10-03T09:02:28.853Z,3.05
2022-10-03T09:05:32.558Z,3.63
2022-10-03T09:08:27.741Z,3.25
2022-10-03T09:11:12.275Z,2.28
2022-10-03T09:14:31.132Z,3.17
2022-10-03T09:17:37.909Z,3.15
2022-10-03T09:20:43.800Z,2.97
2022-10-03T09:24:01.078Z,3.22
2022-10-03T09:26:59.093Z,3.13
2022-10-03T09:30:00.137Z,2.97
2022-10-03T09:33:20.497Z,2.78
2022-10-03T09:36:22.935Z,2.80
2022-10-03T09:40:02.128Z,3.22
2022-10-03T09:42:44.772Z,3.08
2022-10-03T09:45:21.927Z,2.85
2022-10-03T09:48:22.142Z,2.47
2022-10-03T09:51:20.375Z,3.20
2022-10-03T09:54:37.473Z,3.47
2022-10-03T09:57:40.529Z,2.72
2022-10-03T10:00:25.286Z,3.13
2022-10-03T10:03:03.946Z,3.08
2022-10-03T10:05:52.805Z,2.92
2022-10-03T10:09:15.333Z,2.95
2022-10-03T10:12:11.386Z,2.95
2022-10-03T10:15:03.844Z,2.70
2022-10-03T10:18:09.131Z,3.60
2022-10-03T10:21:35.166Z,2.57
2022-10-03T10:25:02.352Z,2.10
2022-10-03T10:28:06.546Z,2.90
2022-10-03T10:31:03.407Z,2.45
2022-10-03T10:34:01.805Z,2.65
2022-10-03T10:37:10.414Z,2.83
2022-10-03T10:39:57.288Z,2.50
2022-10-03T10:42:38.169Z,2.50
2022-10-03T10:45:24.333Z,2.60
2022-10-03T10:48:51.138Z,2.63
2022-10-03T10:52:01.318Z,2.83
2022-10-03T10:54:53.659Z,2.95
2022-10-03T10:57:46.231Z,1.98
2022-10-03T11:00:26.544Z,2.05
2022-10-03T11:03:50.649Z,2.33
2022-10-03T11:07:17.938Z,1.83
2022-10-03T11:10:34.179Z,2.40
2022-10-03T11:13:36.280Z,2.53
2022-10-03T11:17:13.990Z,2.65
2022-10-03T11:19:53.432Z,2.50
2022-10-03T11:22:54.497Z,2.47
2022-10-03T11:26:05.126Z,2.58
2022-10-03T11:29:19.028Z,2.40
2022-10-03T11:32:19.980Z,2.40
2022-10-03T11:35:15.126Z,2.47
2022-10-03T11:38:24.837Z,2.53
2022-10-03T11:41:16.248Z,2.67
2022-10-03T11:44:10.958Z,2.03
2022-10-03T11:47:25.125Z,1.80
2022-10-03T11:50:27.945Z,2.33
2022-10-03T11:53:09.797Z,2.00
2022-10-03T11:56:08.908Z,2.95
2022-10-03T11:59:14.717Z,2.45
2022-10-03T12:02:13.579Z,2.75
2022-10-03T12:05:13.147Z,1.80
2022-10-03T12:08:17.703Z,1.77
2022-10-03T12:11:00.335Z,2.58
2022-10-03T12:13:53.378Z,1.90
2022-10-03T12:16:30.129Z,2.15
2022-10-03T12:19:10.418Z,1.95
2022-10-03T12:22:05.884Z,1.90
2022-10-03T12:24:37.888Z,2.13
2022-10-03T12:27:38.222Z,1.70
2022-10-03T12:30:17.441Z,1.65
2022-10-03T12:33:41.887Z,1.77
2022-10-03T12:36:43.922Z,1.88
2022-10-03T12:40:01.629Z,2.17
2022-10-03T12:42:44.914Z,2.03
2022-10-03T12:45:45.806Z,2.47
2022-10-03T12:48:55.745Z,2.47
2022-10-03T12:51:47.843Z,2.47
2022-10-03T12:54:50.112Z,2.17
2022-10-03T12:57:59.368Z,2.67
2022-10-03T13:00:46.074Z,1.80
2022-10-03T13:03:32.526Z,2.42
2022-10-03T13:07:02.715Z,2.65
2022-10-03T13:09:59.182Z,3.03
2022-10-03T13:12:55.831Z,2.17
2022-10-03T13:15:59.230Z,3.03
2022-10-03T13:19:08.690Z,2.30
2022-10-03T13:21:48.304Z,2.42
2022-10-03T13:24:58.949Z,2.33
2022-10-03T13:27:52.302Z,2.28
2022-10-03T13:30:32.684Z,2.75
2022-10-03T13:33:16.101Z,2.75
2022-10-03T13:36:05.730Z,2.50
2022-10-03T13:39:10.771Z,3.28
2022-10-03T13:42:02.154Z,2.20
2022-10-03T13:44:54.690Z,2.22
2022-10-03T13:47:43.742Z,2.90
2022-10-03T13:50:31.349Z,3.15
2022-10-03T13:53:07.772Z,2.85
2022-10-03T13:55:48.816Z,2.75
2022-10-03T13:58:46.669Z,2.40
2022-10-03T14:01:35.499Z,2.53
2022-10-03T14:04:41.794Z,2.30
2022-10-03T14:07:42.916Z,2.03
2022-10-03T14:10:20.618Z,2.15
2022-10-03T14:13:02.509Z,2.33
2022-10-03T14:15:34.351Z,2.15
2022-10-03T14:18:30.156Z,2.25
2022-10-03T14:24:02.730Z,2.35
2022-10-03T14:26:45.704Z,2.50
2022-10-03T14:29:32.362Z,1.90
2022-10-03T14:32:45.524Z,2.00
2022-10-03T14:35:29.369Z,1.90
2022-10-03T14:38:18.799Z,1.75
2022-10-03T14:41:00.604Z,2.53
2022-10-03T14:43:46.491Z,2.08
2022-10-03T14:46:16.118Z,1.92
2022-10-03T14:48:50.278Z,2.30
2022-10-03T14:51:22.520Z,2.97
2022-10-03T14:54:23.323Z,2.90
2022-10-03T14:56:52.813Z,1.55
2022-10-03T14:59:33.734Z,3.08
2022-10-03T15:02:27.484Z,3.05
2022-10-03T15:05:09.273Z,2.30
2022-10-03T15:07:46.917Z,1.92
2022-10-03T15:10:21.426Z,2.65
2022-10-03T15:12:54.432Z,2.35
2022-10-03T15:15:32.538Z,2.47
2022-10-03T15:18:06.807Z,2.35
2022-10-03T15:20:41.926Z,2.75
2022-10-03T15:23:34.534Z,2.00
2022-10-03T15:26:04.280Z,2.35
2022-10-03T15:28:42.394Z,2.13
2022-10-03T15:31:19.665Z,2.30
2022-10-03T15:33:52.236Z,2.63
2022-10-03T15:36:26.674Z,2.85
2022-10-03T15:39:00.619Z,2.40
2022-10-03T15:41:38.351Z,1.50
2022-10-03T15:44:39.276Z,2.47
2022-10-03T15:47:14.188Z,2.13
2022-10-03T15:50:05.183Z,2.42
2022-10-03T15:52:44.827Z,2.75
2022-10-03T15:55:27.254Z,2.20
2022-10-03T15:58:05.442Z,2.22
2022-10-03T16:00:36.276Z,2.53
2022-10-03T16:03:29.894Z,2.17
2022-10-03T16:06:14.055Z,3.55
2022-10-03T16:09:11.339Z,2.17
2022-10-03T16:12:17.106Z,2.33
2022-10-03T16:15:22.100Z,2.15
2022-10-03T16:18:21.703Z,2.30
2022-10-03T16:21:02.076Z,3.13
2022-10-03T16:23:36.873Z,2.63
2022-10-03T16:26:42.446Z,2.75
2022-10-03T16:29:34.969Z,2.10
2022-10-03T16:32:14.625Z,2.42
2022-10-03T16:34:45.092Z,2.90
2022-10-03T16:37:27.504Z,2.30
2022-10-03T16:40:06.625Z,2.47
2022-10-03T16:42:46.778Z,2.55
2022-10-03T16:45:37.633Z,2.78
2022-10-03T16:48:51.822Z,2.38
2022-10-03T16:51:28.475Z,2.30
2022-10-03T16:53:57.272Z,2.28
2022-10-03T16:56:32.516Z,1.98
2022-10-03T16:59:07.069Z,1.50
2022-10-03T17:01:46.460Z,2.53
2022-10-03T17:04:33.500Z,1.73
2022-10-03T17:07:13.494Z,2.58
2022-10-03T17:09:50.398Z,2.25
2022-10-03T17:12:39.102Z,1.80
2022-10-03T17:15:28.833Z,2.15
2022-10-03T17:18:28.408Z,1.65
2022-10-03T17:21:23.051Z,2.17
2022-10-03T17:24:18.064Z,2.47
2022-10-03T17:26:52.626Z,2.00
2022-10-03T17:29:33.796Z,2.03
2022-10-03T17:32:42.343Z,2.60
2022-10-03T17:35:32.629Z,2.08
2022-10-03T17:38:50.468Z,1.73
2022-10-03T17:41:50.990Z,1.75
2022-10-03T17:44:36.751Z,2.10
2022-10-03T17:47:13.062Z,1.52
2022-10-03T17:49:46.364Z,1.73
2022-10-03T17:52:19.311Z,1.70
2022-10-03T17:54:58.672Z,1.65
2022-10-03T17:57:51.370Z,1.83
2022-10-03T18:00:51.021Z,1.85
2022-10-03T18:03:55.296Z,1.40
2022-10-03T18:06:46.459Z,1.80
2022-10-03T18:09:17.289Z,1.80
2022-10-03T18:11:47.809Z,1.83
2022-10-03T18:14:47.840Z,1.25
2022-10-03T18:17:37.567Z,2.05
2022-10-03T18:20:35.561Z,2.67
2022-10-03T18:23:08.740Z,1.23
2022-10-03T18:26:19.698Z,1.83
2022-10-03T18:29:19.680Z,1.55
2022-10-03T18:31:55.641Z,2.13
2022-10-03T18:34:39.288Z,1.92
2022-10-03T18:37:27.890Z,2.03
2022-10-03T18:39:58.834Z,1.65
2022-10-03T18:42:30.255Z,1.83
2022-10-03T18:45:01.851Z,1.50
2022-10-03T18:47:44.807Z,2.00
2022-10-03T18:50:32.025Z,1.60
2022-10-03T18:53:39.780Z,1.75
2022-10-03T18:56:13.477Z,2.40
2022-10-03T18:58:51.360Z,2.42
2022-10-03T19:01:45.605Z,1.33
2022-10-03T19:04:50.094Z,2.13
2022-10-03T19:07:30.020Z,1.30
2022-10-03T19:10:39.906Z,1.30
2022-10-03T19:13:23.181Z,2.15
2022-10-03T19:16:16.890Z,1.77
2022-10-03T19:18:57.337Z,1.30
2022-10-03T19:21:25.112Z,1.42
2022-10-03T19:24:03.058Z,1.55
2022-10-03T19:26:37.043Z,1.35
2022-10-03T19:29:30.627Z,2.13
2022-10-03T19:32:06.619Z,1.17
2022-10-03T19:35:02.078Z,1.42
2022-10-03T19:37:45.952Z,1.58
2022-10-03T19:40:47.822Z,1.20
2022-10-03T19:43:45.572Z,1.38
2022-10-03T19:46:15.824Z,1.90
2022-10-03T19:48:58.987Z,1.55
2022-10-03T19:51:28.250Z,1.00
2022-10-03T19:53:58.168Z,1.60
2022-10-03T19:56:30.929Z,1.33
2022-10-03T19:59:12.853Z,1.83
2022-10-03T20:01:49.410Z,1.55
2022-10-03T20:04:36.275Z,1.00
2022-10-03T20:07:17.575Z,1.25
2022-10-03T20:10:14.831Z,1.98
2022-10-03T20:12:49.606Z,1.63
2022-10-03T20:15:26.977Z,1.27
2022-10-03T20:18:02.121Z,1.48
2022-10-03T20:20:33.031Z,1.60
2022-10-03T20:23:07.450Z,1.27
2022-10-03T20:25:40.776Z,1.40
2022-10-03T20:28:19.644Z,1.25
2022-10-03T20:30:52.005Z,1.27
2022-10-03T20:33:28.032Z,1.20
2022-10-03T20:36:21.423Z,1.50
2022-10-03T20:39:13.899Z,1.20
2022-10-03T20:42:10.192Z,1.52
2022-10-03T20:45:02.670Z,1.20
2022-10-03T20:47:57.480Z,1.13
2022-10-03T20:50:37.440Z,1.73
2022-10-03T20:53:20.989Z,1.15
2022-10-03T20:56:03.708Z,1.17
2022-10-03T20:58:42.431Z,1.20
2022-10-03T21:01:24.249Z,1.20
2022-10-03T21:04:17.604Z,3.55
2022-10-03T21:07:06.810Z,3.35
2022-10-03T21:09:46.616Z,3.00
2022-10-03T21:12:28.971Z,3.28
2022-10-03T21:15:33.350Z,2.97
2022-10-03T21:18:02.823Z,2.88
2022-10-03T21:20:40.163Z,3.75
2022-10-03T21:23:23.678Z,4.00
2022-10-03T21:25:55.263Z,4.47
2022-10-03T21:28:32.763Z,5.10
2022-10-03T21:31:20.088Z,6.35
2022-10-03T21:34:19.242Z,5.97
2022-10-03T21:36:46.551Z,6.22
2022-10-03T21:40:23.459Z,7.15
2022-10-03T21:43:20.989Z,8.15
2022-10-03T21:46:06.978Z,8.48
2022-10-03T21:48:58.412Z,8.95
2022-10-03T21:52:22.618Z,7.78
2022-10-03T21:55:17.278Z,11.18
2022-10-03T21:58:30.874Z,10.82
2022-10-03T22:01:25.586Z,10.70
2022-10-03T22:04:27.212Z,10.70
2022-10-03T22:07:16.316Z,10.63
2022-10-03T22:09:56.034Z,11.32
2022-10-03T22:12:27.977Z,9.77
2022-10-03T22:15:16.632Z,9.77
2022-10-03T22:18:11.549Z,9.18
2022-10-03T22:21:22.142Z,9.63
2022-10-03T22:24:15.954Z,9.68
2022-10-03T22:27:04.552Z,8.73
2022-10-03T22:30:04.206Z,9.00
2022-10-03T22:33:22.872Z,9.70
2022-10-03T22:36:00.865Z,8.57
2022-10-03T22:38:32.136Z,7.97
2022-10-03T22:41:11.940Z,7.65
2022-10-03T22:43:41.209Z,8.55
2022-10-03T22:46:11.233Z,6.57
2022-10-03T22:48:49.504Z,7.15
2022-10-03T22:51:21.651Z,6.93
2022-10-03T22:53:57.906Z,6.68
2022-10-03T22:57:09.262Z,6.93
2022-10-03T22:59:49.981Z,5.07
2022-10-03T23:02:19.551Z,5.80
2022-10-03T23:04:59.110Z,6.00
2022-10-03T23:07:53.785Z,4.93
2022-10-03T23:10:55.137Z,5.43
2022-10-03T23:13:42.606Z,5.57
2022-10-03T23:16:49.086Z,5.45
2022-10-03T23:19:50.249Z,7.32
2022-10-03T23:22:23.240Z,9.10
2022-10-03T23:25:01.947Z,11.02
2022-10-03T23:27:54.932Z,11.05
2022-10-03T23:30:25.184Z,9.40
2022-10-03T23:32:55.707Z,7.97
2022-10-03T23:35:42.097Z,8.82
2022-10-03T23:38:33.909Z,8.15
2022-10-03T23:41:14.976Z,7.75
2022-10-03T23:43:50.151Z,6.80
2022-10-03T23:46:24.245Z,6.65
2022-10-03T23:49:01.973Z,6.37
2022-10-03T23:51:35.090Z,6.30
2022-10-03T23:54:08.753Z,6.35
2022-10-03T23:56:42.173Z,7.15
2022-10-03T23:59:12.431Z,5.47
